Time;durP1;ratioP1;P1;durP2;ratioP2;P2;SDS_P1;SDS_P2;PMS_P1;PMS_P2;Temp;Humidity;BMP_temperature;BMP_pressure;BME280_temperature;BME280_humidity;BME280_pressure;Samples;Min_cycle;Max_cycle;Signal;HPM_P1;HPM_P2
2023/03/26 00:00:14;;;;;;;2.17;1.02;;;11.20;99.90;;;;;;10525107;28;20020;-63
2023/03/26 00:05:15;;;;;;;3.38;0.90;;;11.20;99.90;;;;;;10512771;28;20028;-64
2023/03/26 00:10:15;;;;;;;2.30;0.75;;;11.20;99.90;;;;;;10517819;28;20017;-62
2023/03/26 00:15:16;;;;;;;2.92;0.88;;;11.20;99.90;;;;;;10519253;28;20036;-64
2023/03/26 00:20:17;;;;;;;1.65;0.68;;;11.20;99.90;;;;;;10523875;28;20102;-64
2023/03/26 00:25:19;;;;;;;3.03;0.80;;;11.20;99.90;;;;;;10519506;28;20130;-64
2023/03/26 00:30:19;;;;;;;1.23;0.85;;;11.20;99.90;;;;;;10524995;28;20016;-63
2023/03/26 00:35:21;;;;;;;2.35;0.98;;;11.20;99.90;;;;;;10519737;28;20028;-64
2023/03/26 00:40:22;;;;;;;1.88;0.90;;;11.20;99.90;;;;;;10522223;28;20012;-62
2023/03/26 00:45:22;;;;;;;2.25;0.73;;;11.20;99.90;;;;;;10523206;28;20053;-61
2023/03/26 00:50:23;;;;;;;1.90;0.82;;;11.20;99.90;;;;;;10519946;28;20020;-62
2023/03/26 00:55:24;;;;;;;1.17;0.70;;;11.20;99.90;;;;;;10518950;28;20107;-61
2023/03/26 01:00:30;;;;;;;2.05;0.65;;;11.10;99.90;;;;;;10517899;28;20283;-61
2023/03/26 01:05:34;;;;;;;0.95;0.80;;;10.80;99.90;;;;;;10517063;28;20020;-61
2023/03/26 01:10:37;;;;;;;1.40;0.75;;;11.20;99.90;;;;;;10516230;28;20023;-60
2023/03/26 01:15:38;;;;;;;2.60;0.95;;;11.10;99.90;;;;;;10520758;28;20448;-61
2023/03/26 01:20:45;;;;;;;2.90;0.90;;;11.10;99.90;;;;;;10519075;28;20100;-61
2023/03/26 01:26:23;;;;;;;2.55;0.80;;;11.10;99.90;;;;;;10516828;28;20048;-61
2023/03/26 01:31:45;;;;;;;3.20;0.80;;;11.10;99.90;;;;;;10497094;28;20746;-61
2023/03/26 01:37:12;;;;;;;2.22;0.60;;;11.10;99.90;;;;;;10512952;28;20105;-61
2023/03/26 01:42:19;;;;;;;4.57;0.90;;;11.10;99.90;;;;;;10517443;28;20715;-61
2023/03/26 01:47:20;;;;;;;2.17;0.82;;;11.10;99.90;;;;;;10520601;28;20456;-63
2023/03/26 01:52:24;;;;;;;3.45;0.90;;;11.10;99.90;;;;;;10523143;28;20115;-63
2023/03/26 01:57:49;;;;;;;1.30;0.60;;;11.10;99.90;;;;;;10530067;28;20104;-64
2023/03/26 02:03:18;;;;;;;2.95;1.10;;;11.10;99.90;;;;;;10526266;28;20056;-64
2023/03/26 02:08:40;;;;;;;1.20;0.73;;;11.10;99.90;;;;;;10523588;28;20038;-63
2023/03/26 02:13:44;;;;;;;3.83;0.75;;;11.00;99.90;;;;;;10524804;28;20020;-64
2023/03/26 02:18:50;;;;;;;1.48;0.73;;;11.10;99.90;;;;;;10525610;28;20236;-63
2023/03/26 02:24:04;;;;;;;3.30;0.70;;;11.00;99.90;;;;;;10528213;28;20024;-64
2023/03/26 02:29:05;;;;;;;2.63;0.60;;;11.00;99.90;;;;;;10525247;28;20024;-64
2023/03/26 02:34:05;;;;;;;3.53;0.70;;;11.00;99.90;;;;;;10525934;28;20020;-63
2023/03/26 02:39:06;;;;;;;1.50;0.60;;;11.00;99.90;;;;;;10524174;28;20028;-64
2023/03/26 02:44:06;;;;;;;2.70;0.90;;;11.00;99.90;;;;;;10523694;28;20040;-63
2023/03/26 02:49:07;;;;;;;0.95;0.55;;;11.00;99.90;;;;;;10528975;28;20085;-64
2023/03/26 02:54:08;;;;;;;2.03;0.52;;;11.00;99.90;;;;;;10528622;28;20017;-64
2023/03/26 02:59:09;;;;;;;3.03;0.60;;;11.00;99.90;;;;;;10529045;28;20016;-63
2023/03/26 03:04:11;;;;;;;1.98;0.60;;;11.00;99.90;;;;;;10525058;28;20028;-62
2023/03/26 03:09:12;;;;;;;2.72;0.70;;;10.90;99.90;;;;;;10525252;28;20543;-62
2023/03/26 03:14:12;;;;;;;2.45;0.50;;;10.90;99.90;;;;;;10524434;28;20090;-62
2023/03/26 03:19:13;;;;;;;1.60;0.70;;;10.90;99.90;;;;;;10524916;28;20016;-62
2023/03/26 03:24:17;;;;;;;0.82;0.70;;;10.90;99.90;;;;;;10524306;28;20076;-62
2023/03/26 03:29:18;;;;;;;3.33;0.90;;;10.90;99.90;;;;;;10527775;28;20091;-63
2023/03/26 03:34:18;;;;;;;1.75;0.52;;;10.90;99.90;;;;;;10525391;28;20016;-62
2023/03/26 03:39:19;;;;;;;2.10;0.70;;;10.90;99.90;;;;;;10524805;28;20027;-61
2023/03/26 03:44:20;;;;;;;5.47;0.80;;;10.90;99.90;;;;;;10525779;28;20416;-62
2023/03/26 03:49:21;;;;;;;1.48;0.60;;;10.80;99.90;;;;;;10527132;28;20119;-62
2023/03/26 03:54:22;;;;;;;1.60;0.70;;;10.90;99.90;;;;;;10525402;28;20021;-62
2023/03/26 03:59:22;;;;;;;1.20;0.70;;;10.80;99.90;;;;;;10524121;28;20012;-61
2023/03/26 04:04:23;;;;;;;1.27;0.68;;;10.80;99.90;;;;;;10524540;28;20388;-61
2023/03/26 04:09:24;;;;;;;1.15;0.70;;;10.80;99.90;;;;;;10525428;28;20020;-61
2023/03/26 04:14:24;;;;;;;3.28;0.90;;;10.80;99.90;;;;;;10523008;28;20438;-63
2023/03/26 04:19:26;;;;;;;1.83;1.00;;;10.80;99.90;;;;;;10524757;28;20016;-61
2023/03/26 04:24:28;;;;;;;2.67;0.70;;;10.80;99.90;;;;;;10527722;28;20023;-63
2023/03/26 04:29:33;;;;;;;1.17;0.60;;;10.80;99.90;;;;;;10525329;28;20052;-63
2023/03/26 04:34:35;;;;;;;1.13;0.65;;;10.80;99.90;;;;;;10523939;28;20107;-63
2023/03/26 04:39:35;;;;;;;1.25;0.63;;;10.80;99.90;;;;;;10520187;28;20479;-64
2023/03/26 04:44:36;;;;;;;2.30;1.05;;;10.70;99.90;;;;;;10524941;28;20032;-64
2023/03/26 04:49:36;;;;;;;3.55;0.80;;;10.80;99.90;;;;;;10524144;28;20032;-64
2023/03/26 04:54:37;;;;;;;3.20;0.70;;;10.80;99.90;;;;;;10523389;28;20081;-64
2023/03/26 04:59:40;;;;;;;1.83;0.90;;;10.70;99.90;;;;;;10524285;28;20018;-62
2023/03/26 05:04:42;;;;;;;1.05;0.80;;;10.70;99.90;;;;;;10518346;28;20452;-63
2023/03/26 05:09:43;;;;;;;2.08;0.80;;;10.70;99.90;;;;;;10518024;28;20024;-63
2023/03/26 05:14:43;;;;;;;2.63;0.90;;;10.70;99.90;;;;;;10515425;28;20028;-63
2023/03/26 05:19:45;;;;;;;1.23;0.80;;;10.70;99.90;;;;;;10509518;28;20054;-64
2023/03/26 05:24:46;;;;;;;2.53;0.95;;;10.70;99.90;;;;;;10526788;28;20043;-64
2023/03/26 05:29:47;;;;;;;2.67;0.80;;;10.70;99.90;;;;;;10523694;28;20032;-63
2023/03/26 05:34:47;;;;;;;2.55;0.95;;;10.70;99.90;;;;;;10517727;28;20024;-64
2023/03/26 05:39:52;;;;;;;1.13;0.63;;;10.70;99.90;;;;;;10521293;28;20352;-63
2023/03/26 05:44:53;;;;;;;2.50;0.70;;;10.70;99.90;;;;;;10524614;28;20091;-64
2023/03/26 05:49:56;;;;;;;1.85;1.05;;;10.70;99.90;;;;;;10521999;28;20548;-64
2023/03/26 05:54:57;;;;;;;2.80;0.85;;;10.70;99.90;;;;;;10525292;28;20347;-63
2023/03/26 05:59:57;;;;;;;1.92;0.77;;;10.70;99.90;;;;;;10522020;28;20028;-64
2023/03/26 06:04:58;;;;;;;1.67;0.82;;;10.70;99.90;;;;;;10531723;28;20052;-64
2023/03/26 06:09:58;;;;;;;2.70;1.10;;;10.70;99.90;;;;;;10526772;28;20279;-64
2023/03/26 06:14:59;;;;;;;4.18;1.17;;;10.70;99.90;;;;;;10529189;28;20028;-64
2023/03/26 06:20:00;;;;;;;1.27;0.80;;;10.70;99.90;;;;;;10519757;28;20024;-65
2023/03/26 06:25:00;;;;;;;1.80;0.80;;;10.70;99.90;;;;;;10534632;28;20024;-63
2023/03/26 06:30:01;;;;;;;2.83;1.00;;;10.70;99.90;;;;;;10525287;28;20115;-63
2023/03/26 06:35:02;;;;;;;2.08;1.00;;;10.70;99.90;;;;;;10521222;28;20038;-64
2023/03/26 06:40:03;;;;;;;3.50;0.80;;;10.70;99.90;;;;;;10521722;28;20046;-64
2023/03/26 06:45:04;;;;;;;1.55;0.88;;;10.70;99.90;;;;;;10519395;28;20128;-64
2023/03/26 06:50:06;;;;;;;3.58;1.40;;;10.70;99.90;;;;;;10530102;28;20028;-64
2023/03/26 06:55:09;;;;;;;4.28;0.93;;;10.70;99.90;;;;;;10526759;28;20430;-64
2023/03/26 07:00:10;;;;;;;1.10;0.90;;;10.70;99.90;;;;;;10524027;28;20027;-64
2023/03/26 07:05:12;;;;;;;2.85;1.13;;;10.70;99.90;;;;;;10508881;28;20032;-63
2023/03/26 07:10:13;;;;;;;1.90;0.73;;;10.70;99.90;;;;;;10526168;28;20028;-63
2023/03/26 07:15:14;;;;;;;4.50;1.00;;;10.70;99.90;;;;;;10523514;28;20020;-64
2023/03/26 07:20:15;;;;;;;2.22;0.98;;;10.70;99.90;;;;;;10525827;28;20081;-64
2023/03/26 07:25:16;;;;;;;1.50;0.82;;;10.80;99.90;;;;;;10529828;28;20024;-64
2023/03/26 07:30:25;;;;;;;1.35;0.70;;;10.80;99.90;;;;;;10521850;28;20040;-64
2023/03/26 07:35:54;;;;;;;2.55;0.98;;;10.80;99.90;;;;;;10523405;28;20099;-64
2023/03/26 07:41:02;;;;;;;;;;;10.80;99.90;;;;;;10520401;28;20021;-63
2023/03/26 07:46:03;;;;;;;4.22;1.08;;;10.80;99.90;;;;;;10524513;28;19915;-64
2023/03/26 07:51:04;;;;;;;4.95;1.00;;;10.80;99.90;;;;;;10523160;28;20462;-64
2023/03/26 07:56:11;;;;;;;4.05;1.63;;;10.80;99.90;;;;;;10523236;28;20042;-63
2023/03/26 08:01:22;;;;;;;3.15;0.80;;;10.80;99.90;;;;;;10519308;28;20050;-64
2023/03/26 08:06:38;;;;;;;3.60;0.88;;;10.80;99.90;;;;;;10517495;28;20099;-64
2023/03/26 08:11:41;;;;;;;2.38;0.77;;;10.80;99.90;;;;;;10523972;28;20108;-63
2023/03/26 08:17:05;;;;;;;3.28;0.70;;;10.90;99.90;;;;;;10528224;28;20035;-65
2023/03/26 08:22:24;;;;;;;3.08;0.70;;;10.90;99.90;;;;;;10519457;28;20532;-64
2023/03/26 08:27:53;;;;;;;3.30;1.08;;;10.90;99.90;;;;;;10524947;28;20024;-63
2023/03/26 08:32:55;;;;;;;2.25;0.88;;;10.90;99.90;;;;;;10500894;28;20098;-62
2023/03/26 08:37:56;;;;;;;6.00;1.45;;;10.90;99.90;;;;;;10518484;28;20024;-63
2023/03/26 08:43:23;;;;;;;3.53;0.80;;;10.90;99.90;;;;;;10522764;28;20134;-63
2023/03/26 08:48:45;;;;;;;4.53;1.10;;;10.90;99.90;;;;;;10519753;28;20466;-63
2023/03/26 08:53:58;;;;;;;2.90;0.70;;;10.90;99.90;;;;;;10512083;28;20039;-63
2023/03/26 08:59:32;;;;;;;2.25;0.80;;;10.90;99.90;;;;;;10524607;28;20397;-62
2023/03/26 09:05:00;;;;;;;2.45;0.80;;;10.90;99.90;;;;;;10519944;28;20056;-64
2023/03/26 09:10:08;;;;;;;3.22;0.80;;;10.90;99.90;;;;;;10515755;28;20495;-64
2023/03/26 09:15:46;;;;;;;3.00;1.10;;;11.00;99.90;;;;;;10523269;28;20032;-63
2023/03/26 09:20:58;;;;;;;5.53;1.37;;;11.00;99.90;;;;;;10521455;28;20039;-64
2023/03/26 09:26:07;;;;;;;2.92;0.80;;;11.00;99.90;;;;;;10518011;28;20285;-63
2023/03/26 09:31:08;;;;;;;2.38;0.95;;;11.00;99.90;;;;;;10522748;28;20028;-66
2023/03/26 09:36:33;;;;;;;2.10;0.63;;;11.00;99.90;;;;;;10518544;28;20415;-65
2023/03/26 09:42:02;;;;;;;2.58;0.90;;;11.00;99.90;;;;;;10520850;28;20036;-63
2023/03/26 09:47:03;;;;;;;3.17;1.08;;;11.00;99.90;;;;;;10517164;28;20093;-64
2023/03/26 09:52:34;;;;;;;1.73;0.80;;;11.10;99.90;;;;;;10523169;28;20123;-63
2023/03/26 09:57:50;;;;;;;5.55;1.02;;;11.10;99.90;;;;;;10522742;28;20020;-64
2023/03/26 10:03:21;;;;;;;1.65;0.80;;;11.20;99.90;;;;;;10518520;28;20056;-63
2023/03/26 10:08:46;;;;;;;4.70;0.82;;;11.30;99.90;;;;;;10521751;28;20383;-63
2023/03/26 10:14:03;;;;;;;3.72;0.98;;;11.30;99.90;;;;;;10515820;28;20036;-63
2023/03/26 10:19:40;;;;;;;4.68;1.13;;;11.40;99.90;;;;;;10526202;28;20035;-64
2023/03/26 10:24:56;;;;;;;4.13;1.10;;;11.40;99.90;;;;;;10526697;28;20024;-63
2023/03/26 10:30:21;;;;;;;5.32;1.40;;;11.40;99.90;;;;;;10528565;28;20035;-64
2023/03/26 10:35:58;;;;;;;5.60;1.30;;;11.50;99.90;;;;;;10520963;28;20039;-63
2023/03/26 10:41:11;;;;;;;3.42;0.90;;;11.50;99.90;;;;;;10520851;28;20067;-62
2023/03/26 10:46:22;;;;;;;4.78;1.23;;;11.50;99.90;;;;;;10524095;28;20035;-63
2023/03/26 10:51:47;;;;;;;3.38;1.23;;;11.60;99.90;;;;;;10522324;28;20024;-63
2023/03/26 10:56:50;;;;;;;2.88;1.33;;;11.50;99.90;;;;;;10522223;28;20043;-63
2023/03/26 11:02:01;;;;;;;3.17;1.10;;;11.50;99.90;;;;;;10524508;28;20035;-63
2023/03/26 11:07:30;;;;;;;3.30;0.95;;;11.40;99.90;;;;;;10518754;28;20056;-63
2023/03/26 11:12:57;;;;;;;5.63;1.73;;;11.40;99.90;;;;;;10525150;28;20109;-62
2023/03/26 11:18:12;;;;;;;7.70;1.50;;;11.40;99.90;;;;;;10523566;28;20020;-63
2023/03/26 11:23:34;;;;;;;7.72;1.55;;;11.40;99.90;;;;;;10522913;28;20063;-63
2023/03/26 11:28:38;;;;;;;8.73;1.77;;;11.50;99.90;;;;;;10526315;28;20177;-63
2023/03/26 11:33:45;;;;;;;4.53;1.63;;;11.50;99.90;;;;;;10526300;28;20483;-63
2023/03/26 11:38:49;;;;;;;5.25;1.40;;;11.60;99.90;;;;;;10523753;28;20084;-63
2023/03/26 11:43:55;;;;;;;5.70;1.20;;;11.60;99.90;;;;;;10518528;28;20064;-62
2023/03/26 11:49:00;;;;;;;10.85;1.67;;;11.70;99.90;;;;;;10521658;28;20488;-62
2023/03/26 11:54:02;;;;;;;9.70;1.23;;;11.30;97.90;;;;;;10525840;28;20023;-65
2023/03/26 11:59:11;;;;;;;9.98;1.10;;;10.60;98.10;;;;;;10523488;28;20391;-65
2023/03/26 12:04:14;;;;;;;;;;;10.20;97.00;;;;;;10513624;28;20020;-64
2023/03/26 12:09:18;;;;;;;8.85;1.42;;;10.00;95.30;;;;;;10522011;28;20169;-64
2023/03/26 12:14:25;;;;;;;10.18;1.48;;;9.80;95.60;;;;;;10523773;28;20466;-65
2023/03/26 12:19:32;;;;;;;7.75;1.25;;;9.70;95.90;;;;;;10522144;28;20100;-63
2023/03/26 12:24:35;;;;;;;6.22;1.20;;;9.60;95.70;;;;;;10520697;28;20031;-64
2023/03/26 12:29:35;;;;;;;10.10;1.33;;;9.60;95.20;;;;;;10523207;28;20527;-64
2023/03/26 12:34:38;;;;;;;8.10;1.38;;;9.70;95.20;;;;;;10518475;28;20606;-63
2023/03/26 12:39:41;;;;;;;4.28;1.15;;;9.80;94.90;;;;;;10521576;28;20012;-64
2023/03/26 12:44:49;;;;;;;14.10;1.77;;;9.80;94.00;;;;;;10522559;28;20446;-64
2023/03/26 12:49:51;;;;;;;10.30;1.47;;;9.60;93.50;;;;;;10523910;28;20020;-62
2023/03/26 12:55:16;;;;;;;11.80;1.95;;;9.30;94.40;;;;;;10520085;28;20023;-64
2023/03/26 13:00:31;;;;;;;16.40;2.47;;;9.20;94.20;;;;;;10519682;28;20031;-63
2023/03/26 13:05:55;;;;;;;7.90;1.45;;;9.10;94.60;;;;;;10520398;28;20016;-64
2023/03/26 13:11:05;;;;;;;7.32;1.48;;;9.10;94.60;;;;;;10523265;28;20045;-64
2023/03/26 13:16:14;;;;;;;11.18;1.52;;;9.10;93.40;;;;;;10519799;28;20031;-63
2023/03/26 13:21:42;;;;;;;6.32;1.38;;;9.10;94.10;;;;;;10517047;28;20024;-64
2023/03/26 13:27:18;;;;;;;8.95;1.67;;;9.10;92.80;;;;;;10508368;28;20024;-64
2023/03/26 13:32:30;;;;;;;12.85;1.63;;;9.00;93.50;;;;;;10496395;28;20393;-63
2023/03/26 13:37:59;;;;;;;9.10;1.15;;;9.00;93.50;;;;;;10510584;28;20024;-63
2023/03/26 13:43:14;;;;;;;10.13;1.70;;;9.10;93.30;;;;;;10510132;28;20024;-63
2023/03/26 13:48:43;;;;;;;8.32;1.48;;;9.20;93.10;;;;;;10519400;28;20024;-64
2023/03/26 13:53:59;;;;;;;10.35;1.80;;;9.10;91.90;;;;;;10517827;28;20331;-65
2023/03/26 13:59:07;;;;;;;6.80;1.05;;;9.00;92.30;;;;;;10521396;28;20152;-64
2023/03/26 14:04:33;;;;;;;7.57;1.63;;;8.90;92.70;;;;;;10524014;28;20626;-64
2023/03/26 14:09:50;;;;;;;8.38;1.40;;;8.90;92.40;;;;;;10518633;28;20028;-64
2023/03/26 14:14:53;;;;;;;5.85;1.20;;;9.00;92.50;;;;;;10518442;28;20511;-64
2023/03/26 14:20:08;;;;;;;4.82;1.10;;;9.00;92.10;;;;;;10520420;28;20016;-64
2023/03/26 14:25:40;;;;;;;18.48;2.20;;;8.80;92.40;;;;;;10521358;28;20024;-64
2023/03/26 14:31:02;;;;;;;9.25;1.25;;;8.80;91.60;;;;;;10510688;28;20032;-65
2023/03/26 14:36:27;;;;;;;5.97;1.30;;;9.00;91.70;;;;;;10514719;28;20068;-63
2023/03/26 14:41:49;;;;;;;10.20;1.13;;;8.90;91.20;;;;;;10484779;28;1106183;-65
2023/03/26 14:47:03;;;;;;;5.13;1.67;;;8.80;90.00;;;;;;10522906;28;20062;-65
2023/03/26 14:52:17;;;;;;;8.50;1.60;;;8.70;91.40;;;;;;10516643;28;20043;-64
2023/03/26 14:57:31;;;;;;;10.73;1.30;;;8.70;91.40;;;;;;10518965;28;20111;-65
2023/03/26 15:02:57;;;;;;;5.97;1.05;;;8.70;90.80;;;;;;10524770;28;20146;-65
2023/03/26 15:08:35;;;;;;;7.07;1.20;;;8.80;90.10;;;;;;10521472;28;20037;-65
2023/03/26 15:14:18;;;;;;;8.85;1.45;;;8.80;89.90;;;;;;10516747;28;20027;-65
2023/03/26 15:19:46;;;;;;;3.88;0.98;;;8.70;90.60;;;;;;10530495;28;20515;-65
2023/03/26 15:25:05;;;;;;;10.57;1.63;;;8.60;91.00;;;;;;10517299;28;20209;-65
2023/03/26 15:30:59;;;;;;;8.70;1.48;;;8.50;91.30;;;;;;10519432;28;20024;-64
2023/03/26 15:36:36;;;;;;;5.55;1.00;;;8.40;90.90;;;;;;10518379;28;20039;-64
2023/03/26 15:41:52;;;;;;;5.22;1.30;;;8.40;90.60;;;;;;10519165;28;20088;-66
2023/03/26 15:47:24;;;;;;;3.10;1.05;;;8.40;91.20;;;;;;10520987;28;20032;-66
2023/03/26 15:52:35;;;;;;;7.00;1.33;;;8.40;90.90;;;;;;10520871;28;20032;-64
2023/03/26 15:57:45;;;;;;;5.13;0.80;;;8.20;90.70;;;;;;10508355;28;20027;-64
2023/03/26 16:03:08;;;;;;;5.85;0.95;;;8.00;90.50;;;;;;10515909;28;20151;-65
2023/03/26 16:08:39;;;;;;;7.13;1.30;;;7.90;90.60;;;;;;10522092;28;20396;-65
2023/03/26 16:13:43;;;;;;;8.70;1.10;;;7.90;88.60;;;;;;10516997;28;20444;-65
2023/03/26 16:18:47;;;;;;;7.95;1.08;;;7.90;90.10;;;;;;10513164;28;20023;-64
2023/03/26 16:23:48;;;;;;;7.25;1.38;;;8.10;90.20;;;;;;10519057;28;20032;-65
2023/03/26 16:28:51;;;;;;;3.95;0.98;;;8.10;90.00;;;;;;10515567;28;20388;-65
2023/03/26 16:34:06;;;;;;;8.45;1.33;;;8.00;90.50;;;;;;10525573;28;20032;-65
2023/03/26 16:39:07;;;;;;;5.03;0.77;;;7.90;89.20;;;;;;10517619;28;20048;-65
2023/03/26 16:44:20;;;;;;;8.93;1.35;;;7.80;90.30;;;;;;10510231;28;20595;-64
2023/03/26 16:50:04;;;;;;;16.25;2.17;;;7.70;90.20;;;;;;10520710;28;20384;-64
2023/03/26 16:55:34;;;;;;;11.32;1.05;;;7.60;89.30;;;;;;10498542;28;20032;-64
2023/03/26 17:01:14;;;;;;;5.18;1.08;;;7.60;89.00;;;;;;10515725;28;20020;-65
2023/03/26 17:06:46;;;;;;;7.75;1.10;;;7.60;86.70;;;;;;10518058;28;20035;-65
2023/03/26 17:12:30;;;;;;;4.10;1.02;;;7.40;88.10;;;;;;10517636;28;20412;-64
2023/03/26 17:17:37;;;;;;;4.60;1.17;;;7.20;87.60;;;;;;10518118;28;20035;-64
2023/03/26 17:22:46;;;;;;;6.97;1.45;;;6.00;89.10;;;;;;10509129;28;20032;-64
2023/03/26 17:28:05;;;;;;;;;;;7.20;88.90;;;;;;10518210;28;20480;-65
2023/03/26 17:33:20;;;;;;;4.65;1.20;;;7.20;88.40;;;;;;10513813;28;19939;-65
2023/03/26 17:38:23;;;;;;;7.88;1.50;;;7.10;90.00;;;;;;10523379;28;20095;-64
2023/03/26 17:43:55;;;;;;;5.78;1.25;;;7.00;90.70;;;;;;10514103;28;20044;-68
2023/03/26 17:49:02;;;;;;;9.57;1.23;;;6.90;90.40;;;;;;10508117;28;20036;-65
2023/03/26 17:54:21;;;;;;;8.20;1.20;;;6.80;91.30;;;;;;10519084;28;20089;-65
2023/03/26 17:59:25;;;;;;;5.47;1.02;;;6.70;91.20;;;;;;10517562;28;20444;-63
2023/03/26 18:04:36;;;;;;;7.70;1.17;;;6.90;92.10;;;;;;10514023;28;20019;-63
2023/03/26 18:09:52;;;;;;;3.25;0.80;;;7.30;92.40;;;;;;10517151;28;21305;-63
2023/03/26 18:15:16;;;;;;;2.83;0.82;;;7.70;92.30;;;;;;10511418;28;20031;-62
2023/03/26 18:20:23;;;;;;;9.07;1.85;;;8.00;92.30;;;;;;10513664;28;20050;-61
2023/03/26 18:25:30;;;;;;;7.25;1.33;;;8.20;92.20;;;;;;10516431;28;20689;-63
2023/03/26 18:30:31;;;;;;;4.85;1.30;;;8.30;92.00;;;;;;10504181;28;20028;-63
2023/03/26 18:35:39;;;;;;;4.28;1.15;;;8.20;92.30;;;;;;10517022;28;20443;-62
2023/03/26 18:40:41;;;;;;;3.93;1.67;;;8.30;92.90;;;;;;10526023;28;20032;-62
2023/03/26 18:45:44;;;;;;;6.18;1.30;;;8.40;92.90;;;;;;10530457;28;20078;-62
2023/03/26 18:51:04;;;;;;;5.10;1.20;;;8.60;93.00;;;;;;10529305;28;20028;-63
2023/03/26 18:56:26;;;;;;;7.40;1.00;;;8.70;93.20;;;;;;10519023;28;20030;-62
2023/03/26 19:01:29;;;;;;;9.13;0.98;;;8.80;93.20;;;;;;10524982;28;20021;-62
2023/03/26 19:06:34;;;;;;;6.90;1.52;;;8.90;93.30;;;;;;10526282;28;20667;-62
2023/03/26 19:11:39;;;;;;;8.10;1.25;;;8.90;93.40;;;;;;10528856;28;20016;-62
2023/03/26 19:16:43;;;;;;;3.50;0.80;;;9.00;93.50;;;;;;10527501;28;20024;-62
2023/03/26 19:21:44;;;;;;;5.22;0.90;;;8.90;93.50;;;;;;10526271;28;20012;-63
2023/03/26 19:26:46;;;;;;;4.68;0.98;;;9.10;93.60;;;;;;10529451;28;20504;-62
2023/03/26 19:31:51;;;;;;;3.72;1.73;;;9.10;93.70;;;;;;10523095;28;20047;-62
2023/03/26 19:37:03;;;;;;;7.07;1.10;;;9.20;93.80;;;;;;10523246;28;20479;-61
2023/03/26 19:42:05;;;;;;;7.05;1.10;;;9.20;94.00;;;;;;10527245;28;20058;-62
2023/03/26 19:47:24;;;;;;;5.05;2.08;;;9.20;94.00;;;;;;10522789;28;20086;-62
2023/03/26 19:52:28;;;;;;;19.65;1.85;;;9.30;94.20;;;;;;10524903;28;20024;-62
2023/03/26 19:57:31;;;;;;;4.05;0.93;;;9.30;94.20;;;;;;10514929;28;20020;-62
2023/03/26 20:02:33;;;;;;;6.90;1.13;;;9.30;94.30;;;;;;10530182;28;20022;-62
2023/03/26 20:07:38;;;;;;;3.17;0.88;;;9.30;94.40;;;;;;10518423;28;20023;-61
2023/03/26 20:12:38;;;;;;;4.55;1.70;;;9.30;94.50;;;;;;10515558;28;20515;-62
2023/03/26 20:17:41;;;;;;;3.63;1.02;;;9.30;94.60;;;;;;10522172;28;20046;-63
2023/03/26 20:22:44;;;;;;;3.30;0.90;;;9.30;94.70;;;;;;10524402;28;20489;-61
2023/03/26 20:27:46;;;;;;;6.25;1.50;;;9.30;94.70;;;;;;10529428;28;20544;-62
2023/03/26 20:32:49;;;;;;;4.63;1.10;;;9.30;94.80;;;;;;10524186;28;20059;-62
2023/03/26 20:37:50;;;;;;;5.90;1.20;;;9.40;94.90;;;;;;10521620;28;20020;-61
2023/03/26 20:42:51;;;;;;;2.35;0.80;;;9.30;95.00;;;;;;10518874;28;20484;-62
2023/03/26 20:47:52;;;;;;;4.07;0.95;;;9.00;95.30;;;;;;10523372;28;20115;-62
2023/03/26 20:52:53;;;;;;;6.57;1.00;;;9.30;95.10;;;;;;10517608;28;20647;-62
2023/03/26 20:57:54;;;;;;;5.50;1.40;;;9.30;95.10;;;;;;10510258;28;20016;-62
2023/03/26 21:02:55;;;;;;;2.30;1.10;;;9.30;95.20;;;;;;10514176;28;20173;-61
2023/03/26 21:07:58;;;;;;;2.25;0.88;;;9.40;95.20;;;;;;10524311;28;20040;-62
2023/03/26 21:13:34;;;;;;;5.70;1.10;;;9.30;95.20;;;;;;10525901;28;20494;-63
2023/03/26 21:18:35;;;;;;;4.13;1.00;;;9.30;95.10;;;;;;10522087;28;20369;-62
2023/03/26 21:23:43;;;;;;;5.80;0.77;;;9.30;95.20;;;;;;10518757;28;20059;-63
2023/03/26 21:28:49;;;;;;;7.77;0.87;;;9.20;95.20;;;;;;10523009;28;20468;-61
2023/03/26 21:33:50;;;;;;;3.85;0.90;;;9.20;95.20;;;;;;10519986;28;20032;-62
2023/03/26 21:38:53;;;;;;;4.45;1.15;;;9.20;95.20;;;;;;10519986;28;20032;-63
2023/03/26 21:43:54;;;;;;;5.50;1.27;;;9.10;95.20;;;;;;10516993;28;20110;-63
2023/03/26 21:48:55;;;;;;;5.00;1.10;;;9.10;95.20;;;;;;10522594;28;20258;-62
2023/03/26 21:53:55;;;;;;;2.72;1.05;;;9.10;95.20;;;;;;10518722;28;20028;-61
2023/03/26 21:59:30;;;;;;;3.70;1.10;;;9.10;95.20;;;;;;10515122;28;20028;-62
2023/03/26 22:04:34;;;;;;;1.92;0.77;;;9.10;95.20;;;;;;10508997;28;20067;-61
2023/03/26 22:09:35;;;;;;;6.85;1.10;;;9.10;95.20;;;;;;10525676;28;20032;-63
2023/03/26 22:14:36;;;;;;;2.60;1.00;;;9.00;95.20;;;;;;10527375;28;20016;-62
2023/03/26 22:19:37;;;;;;;4.85;1.08;;;9.00;95.20;;;;;;10530408;28;20476;-62
2023/03/26 22:24:37;;;;;;;3.00;1.02;;;9.00;95.20;;;;;;10530451;28;20028;-62
2023/03/26 22:29:38;;;;;;;3.65;1.13;;;9.00;95.20;;;;;;10528975;28;20136;-62
2023/03/26 22:34:40;;;;;;;1.67;0.80;;;9.00;95.20;;;;;;10529656;28;20028;-63
2023/03/26 22:39:40;;;;;;;5.18;1.02;;;8.90;95.20;;;;;;10527230;28;20008;-63
2023/03/26 22:44:41;;;;;;;3.30;1.00;;;8.90;95.20;;;;;;10523193;28;20036;-63
2023/03/26 22:49:42;;;;;;;4.13;1.05;;;8.90;95.30;;;;;;10516905;28;20220;-63
2023/03/26 22:54:43;;;;;;;2.47;0.90;;;8.90;95.30;;;;;;10528004;28;20480;-62
2023/03/26 22:59:44;;;;;;;4.60;0.90;;;8.90;95.30;;;;;;10524851;28;20009;-62
2023/03/26 23:04:46;;;;;;;3.42;0.85;;;8.80;95.30;;;;;;10523962;28;20028;-63
2023/03/26 23:09:47;;;;;;;3.53;0.80;;;8.80;95.30;;;;;;10514208;28;20057;-63
2023/03/26 23:14:51;;;;;;;2.58;1.00;;;8.80;95.30;;;;;;10522628;28;20119;-63
2023/03/26 23:19:53;;;;;;;2.67;0.73;;;8.80;95.30;;;;;;10521494;28;20043;-62
2023/03/26 23:24:53;;;;;;;3.75;0.90;;;8.70;95.30;;;;;;10527793;28;20024;-62
2023/03/26 23:29:54;;;;;;;3.75;0.82;;;8.80;95.30;;;;;;10520687;28;20046;-63
2023/03/26 23:34:55;;;;;;;1.38;0.90;;;8.70;95.30;;;;;;10521687;28;20104;-63
2023/03/26 23:39:57;;;;;;;1.80;0.73;;;8.70;95.30;;;;;;10519511;28;20157;-63
2023/03/26 23:44:58;;;;;;;3.30;1.27;;;8.70;95.40;;;;;;10524006;28;20295;-63
2023/03/26 23:50:01;;;;;;;2.47;0.68;;;8.70;95.40;;;;;;10524348;28;20032;-62
2023/03/26 23:55:02;;;;;;;4.38;1.00;;;8.70;95.40;;;;;;10518137;28;20024;-62
